sensor_id;sensor_type;location;lat;lon;timestamp;pressure;altitude;pressure_sealevel;temperature;humidity
77706;BME280;66874;45.274;5.880;2023-09-19T00:00:59;99045.28;;;16.15;88.22
77706;BME280;66874;45.274;5.880;2023-09-19T00:03:24;99053.22;;;16.15;88.00
77706;BME280;66874;45.274;5.880;2023-09-19T00:05:53;99047.97;;;16.14;88.03
77706;BME280;66874;45.274;5.880;2023-09-19T00:08:20;99051.56;;;16.13;88.19
77706;BME280;66874;45.274;5.880;2023-09-19T00:10:50;99055.03;;;16.13;88.07
77706;BME280;66874;45.274;5.880;2023-09-19T00:13:15;99047.22;;;16.11;88.17
77706;BME280;66874;45.274;5.880;2023-09-19T00:15:46;99049.88;;;16.10;88.23
77706;BME280;66874;45.274;5.880;2023-09-19T00:18:14;99050.91;;;16.07;88.27
77706;BME280;66874;45.274;5.880;2023-09-19T00:20:41;99051.00;;;16.04;88.35
77706;BME280;66874;45.274;5.880;2023-09-19T00:23:07;99044.88;;;16.04;88.43
77706;BME280;66874;45.274;5.880;2023-09-19T00:25:36;99042.25;;;16.04;88.51
77706;BME280;66874;45.274;5.880;2023-09-19T00:28:03;99048.31;;;16.06;88.60
77706;BME280;66874;45.274;5.880;2023-09-19T00:30:29;99056.09;;;16.09;88.56
77706;BME280;66874;45.274;5.880;2023-09-19T00:32:54;99046.41;;;16.09;88.44
77706;BME280;66874;45.274;5.880;2023-09-19T00:35:23;99045.50;;;16.10;88.64
77706;BME280;66874;45.274;5.880;2023-09-19T00:37:52;99055.03;;;16.13;88.53
77706;BME280;66874;45.274;5.880;2023-09-19T00:40:18;99053.41;;;16.10;88.56
77706;BME280;66874;45.274;5.880;2023-09-19T00:42:45;99040.22;;;16.10;88.73
77706;BME280;66874;45.274;5.880;2023-09-19T00:45:12;99041.06;;;16.11;88.47
77706;BME280;66874;45.274;5.880;2023-09-19T00:47:42;99038.34;;;16.13;88.75
77706;BME280;66874;45.274;5.880;2023-09-19T00:50:10;99040.06;;;16.14;88.88
77706;BME280;66874;45.274;5.880;2023-09-19T00:52:39;99034.78;;;16.14;88.70
77706;BME280;66874;45.274;5.880;2023-09-19T00:55:06;99041.84;;;16.13;88.77
77706;BME280;66874;45.274;5.880;2023-09-19T00:57:33;99046.16;;;16.16;88.66
77706;BME280;66874;45.274;5.880;2023-09-19T00:59:58;99036.38;;;16.18;88.72
77706;BME280;66874;45.274;5.880;2023-09-19T01:02:25;99041.53;;;16.21;88.69
77706;BME280;66874;45.274;5.880;2023-09-19T01:04:55;99043.22;;;16.22;88.66
77706;BME280;66874;45.274;5.880;2023-09-19T01:07:20;99034.34;;;16.24;88.50
77706;BME280;66874;45.274;5.880;2023-09-19T01:09:48;99032.56;;;16.25;88.43
77706;BME280;66874;45.274;5.880;2023-09-19T01:12:15;99036.00;;;16.27;88.44
77706;BME280;66874;45.274;5.880;2023-09-19T01:14:56;99035.06;;;16.28;88.57
77706;BME280;66874;45.274;5.880;2023-09-19T01:17:46;99035.91;;;16.28;88.57
77706;BME280;66874;45.274;5.880;2023-09-19T01:20:26;99029.88;;;16.26;88.55
77706;BME280;66874;45.274;5.880;2023-09-19T01:23:11;99029.13;;;16.23;88.60
77706;BME280;66874;45.274;5.880;2023-09-19T01:30:57;99029.34;;;16.18;88.27
77706;BME280;66874;45.274;5.880;2023-09-19T01:33:25;99033.69;;;16.19;88.56
77706;BME280;66874;45.274;5.880;2023-09-19T01:35:51;99022.19;;;16.20;88.46
77706;BME280;66874;45.274;5.880;2023-09-19T01:38:19;99030.97;;;16.21;88.43
77706;BME280;66874;45.274;5.880;2023-09-19T01:40:57;99033.69;;;16.19;88.35
77706;BME280;66874;45.274;5.880;2023-09-19T01:43:38;99040.75;;;16.19;88.61
77706;BME280;66874;45.274;5.880;2023-09-19T01:46:15;99038.88;;;16.21;88.52
77706;BME280;66874;45.274;5.880;2023-09-19T01:48:57;99046.75;;;16.22;88.48
77706;BME280;66874;45.274;5.880;2023-09-19T01:52:05;99053.00;;;16.20;88.50
77706;BME280;66874;45.274;5.880;2023-09-19T01:54:34;99052.28;;;16.16;88.47
77706;BME280;66874;45.274;5.880;2023-09-19T01:57:09;99052.22;;;16.18;88.48
77706;BME280;66874;45.274;5.880;2023-09-19T01:59:45;99045.09;;;16.20;88.53
77706;BME280;66874;45.274;5.880;2023-09-19T02:02:14;99043.22;;;16.22;88.65
77706;BME280;66874;45.274;5.880;2023-09-19T02:04:41;99034.41;;;16.23;88.35
77706;BME280;66874;45.274;5.880;2023-09-19T02:07:07;99030.91;;;16.22;88.61
77706;BME280;66874;45.274;5.880;2023-09-19T02:09:33;99029.13;;;16.23;88.67
77706;BME280;66874;45.274;5.880;2023-09-19T02:12:01;99028.28;;;16.22;88.55
77706;BME280;66874;45.274;5.880;2023-09-19T02:14:29;99031.81;;;16.21;88.69
77706;BME280;66874;45.274;5.880;2023-09-19T02:16:55;99037.19;;;16.20;88.70
77706;BME280;66874;45.274;5.880;2023-09-19T02:19:21;99027.47;;;16.20;88.70
77706;BME280;66874;45.274;5.880;2023-09-19T02:21:46;99030.03;;;16.22;88.55
77706;BME280;66874;45.274;5.880;2023-09-19T02:24:14;99034.28;;;16.26;88.57
77706;BME280;66874;45.274;5.880;2023-09-19T02:26:40;99031.66;;;16.26;88.49
77706;BME280;66874;45.274;5.880;2023-09-19T02:29:05;99021.94;;;16.26;88.54
77706;BME280;66874;45.274;5.880;2023-09-19T02:31:31;99021.94;;;16.26;88.58
77706;BME280;66874;45.274;5.880;2023-09-19T02:33:56;99025.44;;;16.27;88.41
77706;BME280;66874;45.274;5.880;2023-09-19T02:36:22;99027.22;;;16.26;88.49
77706;BME280;66874;45.274;5.880;2023-09-19T02:38:49;99030.72;;;16.27;88.85
77706;BME280;66874;45.274;5.880;2023-09-19T02:41:14;99030.84;;;16.24;88.54
77706;BME280;66874;45.274;5.880;2023-09-19T02:43:39;99029.25;;;16.20;88.58
77706;BME280;66874;45.274;5.880;2023-09-19T02:46:05;99038.16;;;16.17;88.50
77706;BME280;66874;45.274;5.880;2023-09-19T02:48:30;99031.28;;;16.13;88.62
77706;BME280;66874;45.274;5.880;2023-09-19T02:50:57;99036.66;;;16.11;88.66
77706;BME280;66874;45.274;5.880;2023-09-19T02:53:23;99037.59;;;16.10;88.63
77706;BME280;66874;45.274;5.880;2023-09-19T02:55:49;99032.53;;;16.04;88.65
77706;BME280;66874;45.274;5.880;2023-09-19T02:58:15;99043.31;;;16.00;88.65
77706;BME280;66874;45.274;5.880;2023-09-19T03:00:40;99040.84;;;15.95;88.73
77706;BME280;66874;45.274;5.880;2023-09-19T03:03:07;99039.97;;;15.95;88.63
77706;BME280;66874;45.274;5.880;2023-09-19T03:05:34;99038.34;;;15.92;88.79
77706;BME280;66874;45.274;5.880;2023-09-19T03:08:00;99034.84;;;15.92;88.98
77706;BME280;66874;45.274;5.880;2023-09-19T03:10:26;99027.84;;;15.91;88.79
77706;BME280;66874;45.274;5.880;2023-09-19T03:12:53;99030.53;;;15.89;88.85
77706;BME280;66874;45.274;5.880;2023-09-19T03:15:19;99030.66;;;15.86;88.80
77706;BME280;66874;45.274;5.880;2023-09-19T03:17:46;99024.53;;;15.85;89.03
77706;BME280;66874;45.274;5.880;2023-09-19T03:20:12;99021.97;;;15.84;88.96
77706;BME280;66874;45.274;5.880;2023-09-19T03:22:39;99016.63;;;15.85;88.85
77706;BME280;66874;45.274;5.880;2023-09-19T03:25:06;99017.56;;;15.84;88.83
77706;BME280;66874;45.274;5.880;2023-09-19T03:27:36;99019.25;;;15.85;88.89
77706;BME280;66874;45.274;5.880;2023-09-19T03:30:02;99022.72;;;15.88;88.95
77706;BME280;66874;45.274;5.880;2023-09-19T03:32:32;99014.91;;;15.84;88.73
77706;BME280;66874;45.274;5.880;2023-09-19T03:34:57;99020.31;;;15.81;88.76
77706;BME280;66874;45.274;5.880;2023-09-19T03:37:23;99021.25;;;15.80;88.60
77706;BME280;66874;45.274;5.880;2023-09-19T03:39:48;99020.44;;;15.78;88.69
77706;BME280;66874;45.274;5.880;2023-09-19T03:42:14;99017.78;;;15.78;88.82
77706;BME280;66874;45.274;5.880;2023-09-19T03:44:39;99030.13;;;15.78;88.71
77706;BME280;66874;45.274;5.880;2023-09-19T03:47:05;99032.75;;;15.78;88.67
77706;BME280;66874;45.274;5.880;2023-09-19T03:49:32;99039.88;;;15.76;88.59
77706;BME280;66874;45.274;5.880;2023-09-19T03:51:57;99031.94;;;15.76;88.75
77706;BME280;66874;45.274;5.880;2023-09-19T03:54:22;99039.81;;;15.77;88.79
77706;BME280;66874;45.274;5.880;2023-09-19T03:56:48;99042.38;;;15.79;88.65
77706;BME280;66874;45.274;5.880;2023-09-19T03:59:13;99035.28;;;15.81;88.84
77706;BME280;66874;45.274;5.880;2023-09-19T04:01:38;99031.72;;;15.82;89.02
77706;BME280;66874;45.274;5.880;2023-09-19T04:04:04;99046.63;;;15.83;88.69
77706;BME280;66874;45.274;5.880;2023-09-19T04:06:34;99050.09;;;15.83;88.91
77706;BME280;66874;45.274;5.880;2023-09-19T04:09:00;99051.84;;;15.84;89.03
77706;BME280;66874;45.274;5.880;2023-09-19T04:11:26;99052.69;;;15.85;88.81
77706;BME280;66874;45.274;5.880;2023-09-19T04:13:51;99043.84;;;15.86;89.00
77706;BME280;66874;45.274;5.880;2023-09-19T04:16:17;99043.84;;;15.86;89.00
77706;BME280;66874;45.274;5.880;2023-09-19T04:18:42;99045.63;;;15.85;89.02
77706;BME280;66874;45.274;5.880;2023-09-19T04:21:08;99050.06;;;15.85;88.98
77706;BME280;66874;45.274;5.880;2023-09-19T04:23:34;99046.50;;;15.86;88.82
77706;BME280;66874;45.274;5.880;2023-09-19T04:26:00;99046.44;;;15.88;88.73
77706;BME280;66874;45.274;5.880;2023-09-19T04:28:25;99053.47;;;15.87;89.04
77706;BME280;66874;45.274;5.880;2023-09-19T04:30:53;99052.69;;;15.85;89.07
77706;BME280;66874;45.274;5.880;2023-09-19T04:33:18;99056.31;;;15.82;89.10
77706;BME280;66874;45.274;5.880;2023-09-19T04:35:43;99059.03;;;15.81;88.98
77706;BME280;66874;45.274;5.880;2023-09-19T04:38:09;99063.44;;;15.80;89.24
77706;BME280;66874;45.274;5.880;2023-09-19T04:40:34;99059.06;;;15.79;89.01
77706;BME280;66874;45.274;5.880;2023-09-19T04:43:00;99064.28;;;15.81;89.26
77706;BME280;66874;45.274;5.880;2023-09-19T04:45:27;99069.47;;;15.84;89.16
77706;BME280;66874;45.274;5.880;2023-09-19T04:47:53;99068.53;;;15.85;89.08
77706;BME280;66874;45.274;5.880;2023-09-19T04:50:19;99076.25;;;15.90;89.06
77706;BME280;66874;45.274;5.880;2023-09-19T04:52:49;99078.81;;;15.91;88.97
77706;BME280;66874;45.274;5.880;2023-09-19T04:55:16;99083.31;;;15.89;89.06
77706;BME280;66874;45.274;5.880;2023-09-19T04:57:49;99078.81;;;15.91;89.08
77706;BME280;66874;45.274;5.880;2023-09-19T05:00:20;99080.47;;;15.94;89.03
77706;BME280;66874;45.274;5.880;2023-09-19T05:02:52;99087.34;;;15.98;89.30
77706;BME280;66874;45.274;5.880;2023-09-19T05:05:18;99088.06;;;16.01;89.23
77706;BME280;66874;45.274;5.880;2023-09-19T05:07:45;99088.88;;;16.03;89.07
77706;BME280;66874;45.274;5.880;2023-09-19T05:10:10;99091.53;;;16.03;88.92
77706;BME280;66874;45.274;5.880;2023-09-19T05:12:37;99087.97;;;16.04;89.03
77706;BME280;66874;45.274;5.880;2023-09-19T05:15:03;99094.00;;;16.06;88.99
77706;BME280;66874;45.274;5.880;2023-09-19T05:17:29;99093.16;;;16.06;88.87
77706;BME280;66874;45.274;5.880;2023-09-19T05:19:54;99095.03;;;16.04;89.06
77706;BME280;66874;45.274;5.880;2023-09-19T05:22:20;99097.69;;;16.02;88.97
77706;BME280;66874;45.274;5.880;2023-09-19T05:24:45;99109.19;;;16.01;88.71
77706;BME280;66874;45.274;5.880;2023-09-19T05:27:14;99106.53;;;16.01;88.92
77706;BME280;66874;45.274;5.880;2023-09-19T05:29:43;99095.94;;;16.03;88.80
77706;BME280;66874;45.274;5.880;2023-09-19T05:32:10;99111.72;;;16.04;89.06
77706;BME280;66874;45.274;5.880;2023-09-19T05:34:36;99100.22;;;16.05;88.90
77706;BME280;66874;45.274;5.880;2023-09-19T05:37:02;99112.47;;;16.06;88.98
77706;BME280;66874;45.274;5.880;2023-09-19T05:39:27;99105.50;;;16.05;89.12
77706;BME280;66874;45.274;5.880;2023-09-19T05:41:53;99113.50;;;16.04;88.97
77706;BME280;66874;45.274;5.880;2023-09-19T05:44:18;99117.84;;;16.05;88.86
77706;BME280;66874;45.274;5.880;2023-09-19T05:46:43;99123.03;;;16.06;89.21
77706;BME280;66874;45.274;5.880;2023-09-19T05:49:10;99123.84;;;16.08;88.97
77706;BME280;66874;45.274;5.880;2023-09-19T05:51:35;99124.66;;;16.10;89.26
77706;BME280;66874;45.274;5.880;2023-09-19T05:54:01;99113.72;;;16.20;89.05
77706;BME280;66874;45.274;5.880;2023-09-19T05:56:26;99116.91;;;16.28;88.96
77706;BME280;66874;45.274;5.880;2023-09-19T05:58:52;99110.53;;;16.33;88.96
77706;BME280;66874;45.274;5.880;2023-09-19T06:01:18;99116.56;;;16.35;88.70
77706;BME280;66874;45.274;5.880;2023-09-19T06:03:45;99112.81;;;16.41;88.91
77706;BME280;66874;45.274;5.880;2023-09-19T06:06:10;99115.13;;;16.49;88.65
77706;BME280;66874;45.274;5.880;2023-09-19T06:08:36;99117.41;;;16.58;88.56
77706;BME280;66874;45.274;5.880;2023-09-19T06:11:01;99124.13;;;16.65;88.30
77706;BME280;66874;45.274;5.880;2023-09-19T06:13:30;99129.13;;;16.71;88.44
77706;BME280;66874;45.274;5.880;2023-09-19T06:15:59;99127.97;;;16.78;88.09
77706;BME280;66874;45.274;5.880;2023-09-19T06:18:28;99134.84;;;16.82;88.20
77706;BME280;66874;45.274;5.880;2023-09-19T06:20:54;99139.16;;;16.85;88.21
77706;BME280;66874;45.274;5.880;2023-09-19T06:23:21;99145.38;;;16.84;87.81
77706;BME280;66874;45.274;5.880;2023-09-19T06:25:46;99149.06;;;16.80;87.86
77706;BME280;66874;45.274;5.880;2023-09-19T06:28:11;99142.19;;;16.76;87.67
77706;BME280;66874;45.274;5.880;2023-09-19T06:30:38;99150.22;;;16.73;87.78
77706;BME280;66874;45.274;5.880;2023-09-19T06:33:05;99140.63;;;16.70;87.69
77706;BME280;66874;45.274;5.880;2023-09-19T06:35:33;99152.91;;;16.71;87.68
77706;BME280;66874;45.274;5.880;2023-09-19T06:37:58;99157.28;;;16.72;87.68
77706;BME280;66874;45.274;5.880;2023-09-19T06:40:24;99152.84;;;16.73;87.50
77706;BME280;66874;45.274;5.880;2023-09-19T06:42:52;99153.84;;;16.70;87.54
77706;BME280;66874;45.274;5.880;2023-09-19T06:45:19;99159.94;;;16.72;87.39
77706;BME280;66874;45.274;5.880;2023-09-19T06:47:49;99150.22;;;16.73;87.44
77706;BME280;66874;45.274;5.880;2023-09-19T06:50:15;99152.91;;;16.71;87.37
77706;BME280;66874;45.274;5.880;2023-09-19T06:52:41;99150.34;;;16.70;87.53
77706;BME280;66874;45.274;5.880;2023-09-19T06:55:07;99161.88;;;16.67;87.58
77706;BME280;66874;45.274;5.880;2023-09-19T06:57:32;99160.25;;;16.65;87.81
77706;BME280;66874;45.274;5.880;2023-09-19T06:59:58;99158.50;;;16.64;87.73
77706;BME280;66874;45.274;5.880;2023-09-19T12:00:22;99001.81;;;32.76;40.32
77706;BME280;66874;45.274;5.880;2023-09-19T12:02:54;98998.44;;;32.00;41.88
77706;BME280;66874;45.274;5.880;2023-09-19T12:05:28;98995.22;;;32.13;41.82
77706;BME280;66874;45.274;5.880;2023-09-19T12:07:54;98990.13;;;32.84;40.18
77706;BME280;66874;45.274;5.880;2023-09-19T12:10:20;98992.03;;;33.62;39.36
77706;BME280;66874;45.274;5.880;2023-09-19T12:12:48;98985.25;;;34.12;38.29
77706;BME280;66874;45.274;5.880;2023-09-19T12:15:25;98982.59;;;34.26;38.30
77706;BME280;66874;45.274;5.880;2023-09-19T12:17:59;98975.19;;;34.58;37.85
77706;BME280;66874;45.274;5.880;2023-09-19T12:20:40;98991.78;;;34.93;37.26
77706;BME280;66874;45.274;5.880;2023-09-19T12:23:15;98977.72;;;34.74;36.49
77706;BME280;66874;45.274;5.880;2023-09-19T12:25:43;98972.97;;;33.39;36.83
77706;BME280;66874;45.274;5.880;2023-09-19T12:28:13;98977.13;;;32.05;39.34
77706;BME280;66874;45.274;5.880;2023-09-19T12:30:38;98977.88;;;31.06;41.40
77706;BME280;66874;45.274;5.880;2023-09-19T12:33:16;98972.28;;;30.48;43.67
77706;BME280;66874;45.274;5.880;2023-09-19T12:35:41;98978.72;;;30.11;43.89
77706;BME280;66874;45.274;5.880;2023-09-19T12:38:10;98975.63;;;30.42;43.40
77706;BME280;66874;45.274;5.880;2023-09-19T12:40:38;98970.59;;;30.47;42.68
77706;BME280;66874;45.274;5.880;2023-09-19T12:43:07;98970.91;;;30.18;43.17
77706;BME280;66874;45.274;5.880;2023-09-19T12:45:32;98963.47;;;30.02;43.68
77706;BME280;66874;45.274;5.880;2023-09-19T12:48:24;98968.97;;;29.47;44.56
77706;BME280;66874;45.274;5.880;2023-09-19T12:51:09;98966.91;;;29.13;46.34
77706;BME280;66874;45.274;5.880;2023-09-19T12:53:39;98968.47;;;29.15;46.03
77706;BME280;66874;45.274;5.880;2023-09-19T12:56:17;98953.78;;;28.90;46.56
77706;BME280;66874;45.274;5.880;2023-09-19T12:58:53;98955.81;;;28.79;46.19
77706;BME280;66874;45.274;5.880;2023-09-19T13:01:25;98953.50;;;28.93;46.28
77706;BME280;66874;45.274;5.880;2023-09-19T13:04:12;98953.84;;;29.18;45.72
77706;BME280;66874;45.274;5.880;2023-09-19T13:06:38;98953.78;;;29.91;44.82
77706;BME280;66874;45.274;5.880;2023-09-19T13:09:09;98948.97;;;31.41;42.12
77706;BME280;66874;45.274;5.880;2023-09-19T13:11:38;98938.19;;;32.55;40.48
77706;BME280;66874;45.274;5.880;2023-09-19T13:14:20;98938.59;;;32.44;39.97
77706;BME280;66874;45.274;5.880;2023-09-19T13:17:06;98942.22;;;31.45;40.73
77706;BME280;66874;45.274;5.880;2023-09-19T13:19:50;98939.91;;;30.22;41.36
77706;BME280;66874;45.274;5.880;2023-09-19T13:22:40;98944.47;;;29.40;43.76
77706;BME280;66874;45.274;5.880;2023-09-19T13:25:21;98930.03;;;30.64;43.22
77706;BME280;66874;45.274;5.880;2023-09-19T13:27:55;98928.59;;;32.12;40.70
77706;BME280;66874;45.274;5.880;2023-09-19T13:30:26;98918.34;;;33.19;38.97
77706;BME280;66874;45.274;5.880;2023-09-19T13:33:03;98912.91;;;34.19;37.52
77706;BME280;66874;45.274;5.880;2023-09-19T13:35:31;98918.41;;;34.93;35.52
77706;BME280;66874;45.274;5.880;2023-09-19T13:37:58;98910.69;;;35.26;34.92
77706;BME280;66874;45.274;5.880;2023-09-19T13:40:23;98910.84;;;34.06;35.79
77706;BME280;66874;45.274;5.880;2023-09-19T13:42:56;98909.25;;;33.12;36.56
77706;BME280;66874;45.274;5.880;2023-09-19T13:45:25;98904.59;;;31.93;37.95
77706;BME280;66874;45.274;5.880;2023-09-19T13:47:56;98911.19;;;30.73;39.54
77706;BME280;66874;45.274;5.880;2023-09-19T13:50:22;98910.53;;;30.19;40.90
77706;BME280;66874;45.274;5.880;2023-09-19T13:52:52;98903.63;;;31.27;39.77
77706;BME280;66874;45.274;5.880;2023-09-19T13:55:19;98910.16;;;32.48;37.91
77706;BME280;66874;45.274;5.880;2023-09-19T13:57:48;98905.75;;;32.31;37.53
77706;BME280;66874;45.274;5.880;2023-09-19T14:00:20;98893.28;;;32.14;37.92
77706;BME280;66874;45.274;5.880;2023-09-19T14:02:46;98885.09;;;32.94;37.28
77706;BME280;66874;45.274;5.880;2023-09-19T14:05:13;98888.34;;;33.74;36.29
77706;BME280;66874;45.274;5.880;2023-09-19T14:07:40;98883.25;;;34.47;36.02
77706;BME280;66874;45.274;5.880;2023-09-19T14:10:07;98884.13;;;34.77;35.04
77706;BME280;66874;45.274;5.880;2023-09-19T14:12:33;98882.81;;;35.03;34.60
77706;BME280;66874;45.274;5.880;2023-09-19T14:15:00;98874.84;;;35.37;33.96
77706;BME280;66874;45.274;5.880;2023-09-19T14:17:25;98875.16;;;35.70;33.22
77706;BME280;66874;45.274;5.880;2023-09-19T14:19:52;98876.72;;;35.80;32.50
77706;BME280;66874;45.274;5.880;2023-09-19T14:22:20;98868.16;;;36.04;32.69
77706;BME280;66874;45.274;5.880;2023-09-19T14:24:52;98870.28;;;36.37;33.25
77706;BME280;66874;45.274;5.880;2023-09-19T14:27:21;98867.09;;;36.61;31.40
77706;BME280;66874;45.274;5.880;2023-09-19T14:29:47;98865.38;;;36.54;31.25
77706;BME280;66874;45.274;5.880;2023-09-19T14:32:12;98866.25;;;35.98;31.05
77706;BME280;66874;45.274;5.880;2023-09-19T14:34:41;98863.38;;;36.06;30.83
77706;BME280;66874;45.274;5.880;2023-09-19T14:37:07;98860.84;;;36.39;30.58
77706;BME280;66874;45.274;5.880;2023-09-19T14:39:33;98860.84;;;36.67;29.97
77706;BME280;66874;45.274;5.880;2023-09-19T14:42:05;98854.91;;;36.99;29.33
77706;BME280;66874;45.274;5.880;2023-09-19T14:44:30;98849.91;;;37.09;28.88
77706;BME280;66874;45.274;5.880;2023-09-19T14:46:56;98856.47;;;37.21;29.17
77706;BME280;66874;45.274;5.880;2023-09-19T14:49:24;98849.19;;;37.55;29.22
77706;BME280;66874;45.274;5.880;2023-09-19T14:51:50;98847.94;;;37.44;29.29
77706;BME280;66874;45.274;5.880;2023-09-19T14:54:17;98849.00;;;37.56;29.65
77706;BME280;66874;45.274;5.880;2023-09-19T14:56:44;98854.03;;;37.59;29.10
77706;BME280;66874;45.274;5.880;2023-09-19T14:59:10;98858.03;;;37.63;29.12
77706;BME280;66874;45.274;5.880;2023-09-19T15:01:39;98854.66;;;37.68;28.37
77706;BME280;66874;45.274;5.880;2023-09-19T15:04:06;98853.28;;;37.24;28.89
77706;BME280;66874;45.274;5.880;2023-09-19T15:06:31;98853.66;;;36.95;29.28
77706;BME280;66874;45.274;5.880;2023-09-19T15:08:57;98852.34;;;36.90;29.66
77706;BME280;66874;45.274;5.880;2023-09-19T15:11:23;98846.97;;;37.10;29.79
77706;BME280;66874;45.274;5.880;2023-09-19T15:13:51;98853.22;;;37.79;28.84
77706;BME280;66874;45.274;5.880;2023-09-19T15:16:18;98843.56;;;38.03;27.79
77706;BME280;66874;45.274;5.880;2023-09-19T15:18:45;98845.88;;;38.06;27.98
77706;BME280;66874;45.274;5.880;2023-09-19T15:21:13;98842.28;;;38.05;27.56
77706;BME280;66874;45.274;5.880;2023-09-19T15:23:42;98843.97;;;38.06;27.59
77706;BME280;66874;45.274;5.880;2023-09-19T15:26:10;98836.63;;;37.94;27.77
77706;BME280;66874;45.274;5.880;2023-09-19T15:28:39;98828.41;;;37.87;27.69
77706;BME280;66874;45.274;5.880;2023-09-19T15:31:07;98829.06;;;37.82;27.64
77706;BME280;66874;45.274;5.880;2023-09-19T15:33:36;98823.59;;;37.76;28.43
77706;BME280;66874;45.274;5.880;2023-09-19T15:38:29;98825.88;;;37.46;29.71
77706;BME280;66874;45.274;5.880;2023-09-19T15:40:59;98827.94;;;37.37;28.96
77706;BME280;66874;45.274;5.880;2023-09-19T15:43:25;98827.06;;;37.17;29.50
77706;BME280;66874;45.274;5.880;2023-09-19T15:45:51;98829.78;;;37.17;29.28
77706;BME280;66874;45.274;5.880;2023-09-19T15:48:17;98829.00;;;37.29;29.54
77706;BME280;66874;45.274;5.880;2023-09-19T15:50:44;98829.81;;;37.23;29.41
77706;BME280;66874;45.274;5.880;2023-09-19T15:53:12;98829.72;;;36.97;29.15
77706;BME280;66874;45.274;5.880;2023-09-19T15:55:39;98833.78;;;36.66;29.78
77706;BME280;66874;45.274;5.880;2023-09-19T15:58:09;98826.19;;;36.55;29.73
77706;BME280;66874;45.274;5.880;2023-09-19T16:00:34;98829.25;;;36.45;29.76
77706;BME280;66874;45.274;5.880;2023-09-19T16:03:05;98828.66;;;36.15;29.74
77706;BME280;66874;45.274;5.880;2023-09-19T16:05:37;98818.28;;;35.76;30.24
77706;BME280;66874;45.274;5.880;2023-09-19T16:08:05;98819.34;;;35.53;30.54
77706;BME280;66874;45.274;5.880;2023-09-19T16:10:34;98820.88;;;35.41;31.75
77706;BME280;66874;45.274;5.880;2023-09-19T16:12:59;98819.75;;;35.50;31.68
77706;BME280;66874;45.274;5.880;2023-09-19T16:15:24;98818.34;;;35.39;31.50
77706;BME280;66874;45.274;5.880;2023-09-19T16:17:50;98812.50;;;35.00;31.83
77706;BME280;66874;45.274;5.880;2023-09-19T16:20:16;98821.13;;;34.52;32.51
77706;BME280;66874;45.274;5.880;2023-09-19T16:22:41;98825.19;;;34.18;32.59
77706;BME280;66874;45.274;5.880;2023-09-19T16:25:10;98829.78;;;34.03;33.36
77706;BME280;66874;45.274;5.880;2023-09-19T16:27:37;98820.34;;;33.76;33.51
77706;BME280;66874;45.274;5.880;2023-09-19T16:30:02;98819.69;;;33.51;34.17
77706;BME280;66874;45.274;5.880;2023-09-19T16:32:28;98821.00;;;33.32;33.99
77706;BME280;66874;45.274;5.880;2023-09-19T16:34:53;98825.84;;;32.91;34.88
77706;BME280;66874;45.274;5.880;2023-09-19T16:37:19;98821.91;;;31.90;36.17
77706;BME280;66874;45.274;5.880;2023-09-19T16:39:44;98827.25;;;31.00;37.58
77706;BME280;66874;45.274;5.880;2023-09-19T16:42:09;98825.03;;;30.19;38.86
77706;BME280;66874;45.274;5.880;2023-09-19T16:44:37;98824.69;;;29.52;40.49
77706;BME280;66874;45.274;5.880;2023-09-19T16:47:02;98828.44;;;29.06;41.79
77706;BME280;66874;45.274;5.880;2023-09-19T16:49:28;98836.59;;;28.68;42.80
77706;BME280;66874;45.274;5.880;2023-09-19T16:51:54;98828.81;;;28.28;43.10
77706;BME280;66874;45.274;5.880;2023-09-19T16:54:20;98835.41;;;28.06;44.25
77706;BME280;66874;45.274;5.880;2023-09-19T16:56:45;98838.72;;;27.81;44.92
77706;BME280;66874;45.274;5.880;2023-09-19T16:59:11;98838.72;;;27.51;46.32
77706;BME280;66874;45.274;5.880;2023-09-19T17:01:36;98845.25;;;27.30;46.68
77706;BME280;66874;45.274;5.880;2023-09-19T17:04:02;98844.22;;;27.11;47.20
77706;BME280;66874;45.274;5.880;2023-09-19T17:06:27;98857.06;;;27.08;47.74
77706;BME280;66874;45.274;5.880;2023-09-19T17:08:53;98849.81;;;26.89;48.31
77706;BME280;66874;45.274;5.880;2023-09-19T17:11:20;98865.06;;;26.48;49.60
77706;BME280;66874;45.274;5.880;2023-09-19T17:13:47;98861.22;;;26.10;50.43
77706;BME280;66874;45.274;5.880;2023-09-19T17:16:16;98863.59;;;25.71;51.01
77706;BME280;66874;45.274;5.880;2023-09-19T17:18:43;98859.25;;;25.38;51.86
77706;BME280;66874;45.274;5.880;2023-09-19T17:21:10;98853.00;;;25.17;52.68
77706;BME280;66874;45.274;5.880;2023-09-19T17:23:38;98862.50;;;24.98;53.06
77706;BME280;66874;45.274;5.880;2023-09-19T17:26:08;98860.97;;;24.84;52.89
77706;BME280;66874;45.274;5.880;2023-09-19T17:28:46;98869.00;;;24.73;53.13
77706;BME280;66874;45.274;5.880;2023-09-19T17:31:14;98875.44;;;24.59;53.23
77706;BME280;66874;45.274;5.880;2023-09-19T17:33:40;98874.47;;;24.27;53.72
77706;BME280;66874;45.274;5.880;2023-09-19T17:36:13;98872.81;;;23.91;54.45
77706;BME280;66874;45.274;5.880;2023-09-19T17:38:40;98873.06;;;23.63;55.49
77706;BME280;66874;45.274;5.880;2023-09-19T17:41:06;98878.22;;;23.43;56.07
77706;BME280;66874;45.274;5.880;2023-09-19T17:43:35;98895.50;;;23.26;56.93
77706;BME280;66874;45.274;5.880;2023-09-19T17:46:08;98889.47;;;23.11;57.33
77706;BME280;66874;45.274;5.880;2023-09-19T17:48:48;98890.69;;;22.94;57.96
77706;BME280;66874;45.274;5.880;2023-09-19T17:51:15;98895.31;;;22.79;58.55
77706;BME280;66874;45.274;5.880;2023-09-19T17:53:42;98898.75;;;22.69;58.82
77706;BME280;66874;45.274;5.880;2023-09-19T17:56:10;98891.50;;;22.58;58.69
77706;BME280;66874;45.274;5.880;2023-09-19T17:58:37;98888.75;;;22.47;58.93
77706;BME280;66874;45.274;5.880;2023-09-19T18:01:17;98896.84;;;22.32;58.93
77706;BME280;66874;45.274;5.880;2023-09-19T18:03:45;98896.66;;;22.23;59.18
77706;BME280;66874;45.274;5.880;2023-09-19T18:06:12;98889.72;;;22.20;59.56
77706;BME280;66874;45.274;5.880;2023-09-19T18:08:38;98896.50;;;22.11;58.64
77706;BME280;66874;45.274;5.880;2023-09-19T18:11:05;98898.00;;;22.03;59.32